createdAt,value
2023-01-19T00:00:44.463Z,22.30
2023-01-19T00:03:16.125Z,26.87
2023-01-19T00:05:44.908Z,30.37
2023-01-19T00:08:16.850Z,32.63
2023-01-19T00:10:47.283Z,24.90
2023-01-19T00:13:17.345Z,25.67
2023-01-19T00:15:45.481Z,22.57
2023-01-19T00:18:14.475Z,28.37
2023-01-19T00:20:42.753Z,28.50
2023-01-19T00:23:10.880Z,21.50
2023-01-19T00:25:42.582Z,27.33
2023-01-19T00:28:11.455Z,28.17
2023-01-19T00:30:42.533Z,29.13
2023-01-19T00:33:11.066Z,31.07
2023-01-19T00:35:39.427Z,29.57
2023-01-19T00:38:07.602Z,27.50
2023-01-19T00:40:36.128Z,32.10
2023-01-19T00:43:05.183Z,24.63
2023-01-19T00:45:34.809Z,30.27
2023-01-19T00:48:04.572Z,25.00
2023-01-19T00:50:33.958Z,22.07
2023-01-19T00:53:03.343Z,31.23
2023-01-19T00:55:33.621Z,20.87
2023-01-19T00:58:02.920Z,32.70
2023-01-19T01:00:31.119Z,29.37
2023-01-19T01:02:59.643Z,26.47
2023-01-19T01:05:29.512Z,32.00
2023-01-19T01:07:57.654Z,31.73
2023-01-19T01:10:28.137Z,27.77
2023-01-19T01:12:58.834Z,36.47
2023-01-19T01:15:29.740Z,26.93
2023-01-19T01:17:57.835Z,33.37
2023-01-19T01:20:30.361Z,31.47
2023-01-19T01:23:00.193Z,23.40
2023-01-19T01:25:31.241Z,38.03
2023-01-19T01:27:59.485Z,26.27
2023-01-19T01:30:27.666Z,25.70
2023-01-19T01:32:56.270Z,26.20
2023-01-19T01:35:26.511Z,29.97
2023-01-19T01:37:54.691Z,32.13
2023-01-19T01:40:24.226Z,32.83
2023-01-19T01:42:52.381Z,28.23
2023-01-19T01:45:33.868Z,29.77
2023-01-19T01:48:09.979Z,29.20
2023-01-19T01:51:03.028Z,24.43
2023-01-19T01:53:34.712Z,30.53
2023-01-19T01:56:08.827Z,31.50
2023-01-19T01:58:38.562Z,24.23
2023-01-19T02:01:25.649Z,26.67
2023-01-19T02:03:58.701Z,31.13
2023-01-19T02:06:27.681Z,32.00
2023-01-19T02:09:18.030Z,29.93
2023-01-19T02:12:05.573Z,24.07
2023-01-19T02:14:33.781Z,34.53
2023-01-19T02:17:02.286Z,28.57
2023-01-19T02:19:35.625Z,31.13
2023-01-19T02:22:09.359Z,30.00
2023-01-19T02:24:39.632Z,34.10
2023-01-19T02:27:09.182Z,28.77
2023-01-19T02:29:37.416Z,34.97
2023-01-19T02:32:06.276Z,26.93
2023-01-19T02:34:34.934Z,31.30
2023-01-19T02:37:08.797Z,38.40
2023-01-19T02:39:45.305Z,32.07
2023-01-19T02:42:17.044Z,28.60
2023-01-19T02:44:48.308Z,32.20
2023-01-19T02:47:17.641Z,29.00
2023-01-19T02:49:45.745Z,34.03
2023-01-19T02:52:19.688Z,34.90
2023-01-19T02:55:00.349Z,25.77
2023-01-19T02:57:43.750Z,32.77
2023-01-19T03:00:26.497Z,28.47
2023-01-19T03:03:09.239Z,29.07
2023-01-19T03:05:53.175Z,26.50
2023-01-19T03:08:33.062Z,26.70
2023-01-19T03:11:05.744Z,24.33
2023-01-19T03:13:43.800Z,31.93
2023-01-19T03:16:21.847Z,27.67
2023-01-19T03:18:55.000Z,30.13
2023-01-19T03:21:27.928Z,25.10
2023-01-19T03:24:00.474Z,33.10
2023-01-19T03:26:33.976Z,34.33
2023-01-19T03:29:04.938Z,31.53
2023-01-19T03:31:34.556Z,33.13
2023-01-19T03:34:07.918Z,28.33
2023-01-19T03:36:39.995Z,35.83
2023-01-19T03:39:11.329Z,30.60
2023-01-19T03:41:44.336Z,22.40
2023-01-19T03:44:13.567Z,24.37
2023-01-19T03:46:42.252Z,29.07
2023-01-19T03:49:11.197Z,31.43
2023-01-19T03:51:40.389Z,28.00
2023-01-19T03:54:09.376Z,28.60
2023-01-19T03:56:37.702Z,35.00
2023-01-19T03:59:07.556Z,23.07
2023-01-19T04:01:35.917Z,23.20
2023-01-19T04:04:04.089Z,29.20
2023-01-19T04:06:32.221Z,31.00
2023-01-19T04:09:00.408Z,26.40
2023-01-19T04:11:28.523Z,29.27
2023-01-19T04:13:56.602Z,22.07
2023-01-19T04:16:26.213Z,24.47
2023-01-19T04:18:54.455Z,34.67
2023-01-19T04:21:22.673Z,28.80
2023-01-19T04:23:51.004Z,27.47
2023-01-19T04:26:19.185Z,28.63
2023-01-19T04:28:47.312Z,29.83
2023-01-19T04:31:15.590Z,32.30
2023-01-19T04:33:45.117Z,32.23
2023-01-19T04:36:13.265Z,32.63
2023-01-19T04:38:41.565Z,29.30
2023-01-19T04:41:10.096Z,27.47
2023-01-19T04:43:38.475Z,25.77
2023-01-19T04:46:06.811Z,22.20
2023-01-19T04:48:35.165Z,26.50
2023-01-19T04:51:04.869Z,26.10
2023-01-19T04:53:33.072Z,37.90
2023-01-19T04:56:01.382Z,22.27
2023-01-19T04:58:29.522Z,30.77
2023-01-19T05:00:57.757Z,28.53
2023-01-19T05:03:26.698Z,24.67
2023-01-19T05:05:54.912Z,36.57
2023-01-19T05:08:24.572Z,24.60
2023-01-19T05:10:52.813Z,29.17
2023-01-19T05:13:20.987Z,28.10
2023-01-19T05:15:49.461Z,31.03
2023-01-19T05:18:18.051Z,36.83
2023-01-19T05:20:46.140Z,26.60
2023-01-19T05:23:14.171Z,23.67
2023-01-19T05:25:44.686Z,33.23
2023-01-19T05:28:13.046Z,32.87
2023-01-19T05:30:41.460Z,29.33
2023-01-19T05:33:09.732Z,29.67
2023-01-19T05:35:37.745Z,31.27
2023-01-19T05:38:05.871Z,35.73
2023-01-19T05:40:33.931Z,29.53
2023-01-19T05:43:05.354Z,36.70
2023-01-19T05:45:34.280Z,46.57
2023-01-19T05:48:02.555Z,32.80
2023-01-19T05:50:30.723Z,39.67
2023-01-19T05:53:00.225Z,34.97
2023-01-19T05:55:29.524Z,32.10
2023-01-19T05:57:57.701Z,37.27
2023-01-19T06:00:27.932Z,39.17
2023-01-19T06:02:56.176Z,40.53
2023-01-19T06:05:24.372Z,42.23
2023-01-19T06:07:52.689Z,28.60
2023-01-19T06:10:20.968Z,40.20
2023-01-19T06:12:49.984Z,35.90
2023-01-19T06:15:18.513Z,37.57
2023-01-19T06:17:48.118Z,44.87
2023-01-19T06:20:16.660Z,57.10
2023-01-19T06:22:44.798Z,46.90
2023-01-19T06:25:13.709Z,39.77
2023-01-19T06:27:45.330Z,40.30
2023-01-19T06:30:15.019Z,34.23
2023-01-19T06:32:43.220Z,42.40
2023-01-19T06:35:13.128Z,36.70
2023-01-19T06:37:41.785Z,42.13
2023-01-19T06:40:13.599Z,53.43
2023-01-19T06:42:42.724Z,45.70
2023-01-19T06:45:14.776Z,42.07
2023-01-19T06:47:42.902Z,41.27
2023-01-19T06:50:12.988Z,42.40
2023-01-19T06:52:42.730Z,41.70
2023-01-19T06:55:12.233Z,45.10
2023-01-19T06:57:41.081Z,42.60
2023-01-19T07:00:12.332Z,43.37
2023-01-19T07:02:43.771Z,39.93
2023-01-19T07:05:15.269Z,32.37
2023-01-19T07:07:45.507Z,34.93
2023-01-19T07:10:15.842Z,41.30
2023-01-19T07:12:46.577Z,41.13
2023-01-19T07:15:15.343Z,47.80
2023-01-19T07:17:43.561Z,36.63
2023-01-19T07:20:14.625Z,33.00
2023-01-19T07:22:45.896Z,37.67
2023-01-19T07:25:14.769Z,36.10
2023-01-19T07:27:43.271Z,44.00
2023-01-19T07:30:12.419Z,31.27
2023-01-19T07:32:40.771Z,34.33
2023-01-19T07:35:14.602Z,46.20
2023-01-19T07:37:42.799Z,33.47
2023-01-19T07:40:12.331Z,36.87
2023-01-19T07:42:41.005Z,32.23
2023-01-19T07:45:10.382Z,38.27
2023-01-19T07:47:38.703Z,34.97
2023-01-19T07:50:07.790Z,40.43
2023-01-19T07:52:37.507Z,38.57
2023-01-19T07:55:06.428Z,38.63
2023-01-19T07:57:35.613Z,43.70
2023-01-19T08:00:05.072Z,36.10
2023-01-19T08:02:34.143Z,45.80
2023-01-19T08:05:02.300Z,32.60
2023-01-19T08:07:30.552Z,39.23
2023-01-19T08:10:00.195Z,36.00
2023-01-19T08:12:28.328Z,34.93
2023-01-19T08:14:56.331Z,37.07
2023-01-19T08:17:24.433Z,42.27
2023-01-19T08:19:52.502Z,45.90
2023-01-19T08:22:20.574Z,38.73
2023-01-19T08:24:50.378Z,43.57
2023-01-19T08:27:20.032Z,36.23
2023-01-19T08:29:48.666Z,37.97
2023-01-19T08:32:17.148Z,37.40
2023-01-19T08:34:45.296Z,37.00
2023-01-19T08:37:13.394Z,44.13
2023-01-19T08:39:41.711Z,45.77
2023-01-19T08:42:09.839Z,43.73
2023-01-19T08:44:43.888Z,41.07
2023-01-19T08:47:17.917Z,42.20
2023-01-19T08:49:46.299Z,38.03
2023-01-19T08:52:14.575Z,40.63
2023-01-19T08:54:42.761Z,39.57
2023-01-19T08:57:10.850Z,44.50
2023-01-19T08:59:40.583Z,41.30
2023-01-19T09:02:11.260Z,45.53
2023-01-19T09:04:39.456Z,42.70
2023-01-19T09:07:07.591Z,36.10
2023-01-19T09:09:38.016Z,44.40
2023-01-19T09:12:06.480Z,44.72
2023-01-19T09:14:34.631Z,50.13
2023-01-19T09:17:04.427Z,50.78
2023-01-19T09:19:33.747Z,41.05
2023-01-19T09:22:03.177Z,39.45
2023-01-19T09:24:31.280Z,39.78
2023-01-19T09:26:59.392Z,43.25
2023-01-19T09:29:27.586Z,44.13
2023-01-19T09:31:55.771Z,35.58
2023-01-19T09:34:26.264Z,44.15
2023-01-19T09:36:54.719Z,42.70
2023-01-19T09:39:22.937Z,42.45
2023-01-19T09:42:00.570Z,42.15
2023-01-19T09:44:33.472Z,41.08
2023-01-19T09:47:05.021Z,38.25
2023-01-19T09:49:37.969Z,45.83
2023-01-19T09:52:06.913Z,41.75
2023-01-19T09:54:44.221Z,40.08
2023-01-19T09:57:13.741Z,48.90
2023-01-19T09:59:43.957Z,32.30
2023-01-19T10:02:29.226Z,41.97
2023-01-19T10:05:02.571Z,36.75
2023-01-19T10:07:56.216Z,31.73
2023-01-19T10:10:27.305Z,40.75
2023-01-19T10:13:20.405Z,51.30
2023-01-19T10:15:58.156Z,36.58
2023-01-19T10:18:33.287Z,44.17
2023-01-19T10:21:07.231Z,45.28
2023-01-19T10:23:44.661Z,34.28
2023-01-19T10:26:18.413Z,31.23
2023-01-19T10:28:50.191Z,33.67
2023-01-19T10:31:23.736Z,42.53
2023-01-19T10:33:52.705Z,41.13
2023-01-19T10:36:26.712Z,36.60
2023-01-19T10:38:55.190Z,46.17
2023-01-19T10:41:27.543Z,33.08
2023-01-19T10:44:02.248Z,27.23
2023-01-19T10:46:38.584Z,33.38
2023-01-19T10:49:07.610Z,29.17
2023-01-19T10:51:48.441Z,35.65
2023-01-19T10:54:17.027Z,44.85
2023-01-19T10:56:51.616Z,33.72
2023-01-19T10:59:33.677Z,38.40
2023-01-19T11:02:17.087Z,26.45
2023-01-19T11:04:48.944Z,27.13
2023-01-19T11:07:21.540Z,27.05
2023-01-19T11:09:50.685Z,37.25
2023-01-19T11:12:24.087Z,29.95
2023-01-19T11:14:53.912Z,26.77
2023-01-19T11:17:25.227Z,29.77
2023-01-19T11:20:02.472Z,37.03
2023-01-19T11:22:34.102Z,31.50
2023-01-19T11:25:04.607Z,33.60
2023-01-19T11:27:35.821Z,26.63
2023-01-19T11:30:18.212Z,24.77
2023-01-19T11:32:49.307Z,21.75
2023-01-19T11:35:38.711Z,25.48
2023-01-19T11:38:17.010Z,21.33
2023-01-19T11:40:53.006Z,17.67
2023-01-19T11:43:23.588Z,20.13
2023-01-19T11:45:52.285Z,15.88
2023-01-19T11:48:28.686Z,13.88
2023-01-19T11:51:01.753Z,15.07
2023-01-19T11:53:35.160Z,30.25
2023-01-19T11:56:07.987Z,9.20
2023-01-19T11:58:41.965Z,15.30
2023-01-19T12:01:21.270Z,14.45
2023-01-19T12:03:55.854Z,17.80
2023-01-19T12:06:27.980Z,8.07
2023-01-19T12:09:00.817Z,13.85
2023-01-19T12:11:38.452Z,15.27
2023-01-19T12:14:16.298Z,10.70
2023-01-19T12:16:45.117Z,14.43
2023-01-19T12:19:18.175Z,13.95
2023-01-19T12:21:48.235Z,14.38
2023-01-19T12:24:24.521Z,11.45
2023-01-19T12:26:56.919Z,11.52
2023-01-19T12:29:29.000Z,7.70
2023-01-19T12:32:19.610Z,8.95
2023-01-19T12:34:48.493Z,8.73
2023-01-19T12:37:41.146Z,9.25
2023-01-19T12:40:27.592Z,15.52
2023-01-19T12:43:01.853Z,17.23
2023-01-19T12:45:34.749Z,16.55
2023-01-19T12:48:03.873Z,9.82
2023-01-19T12:50:38.401Z,9.93
2023-01-19T12:53:17.417Z,10.52
2023-01-19T12:55:47.730Z,15.48
2023-01-19T12:58:19.210Z,26.35
2023-01-19T13:00:49.641Z,20.02
2023-01-19T13:03:47.153Z,9.43
2023-01-19T13:06:15.315Z,12.57
2023-01-19T13:09:00.814Z,8.88
2023-01-19T13:11:34.315Z,12.13
2023-01-19T13:14:35.463Z,9.45
2023-01-19T13:17:33.834Z,10.02
2023-01-19T13:20:27.374Z,12.18
2023-01-19T13:23:18.148Z,8.63
2023-01-19T13:25:54.684Z,8.20
2023-01-19T13:28:40.638Z,11.68
2023-01-19T13:31:10.218Z,8.48
2023-01-19T13:33:49.508Z,8.50
2023-01-19T13:36:28.834Z,5.35
2023-01-19T13:38:59.233Z,7.10
2023-01-19T13:41:30.424Z,10.65
2023-01-19T13:44:04.569Z,8.88
2023-01-19T13:46:34.323Z,13.15
2023-01-19T13:49:06.562Z,11.35
2023-01-19T13:51:34.710Z,11.18
2023-01-19T13:54:02.998Z,8.73
2023-01-19T13:56:31.962Z,14.20
2023-01-19T13:59:11.764Z,6.82
2023-01-19T14:01:42.129Z,10.90
2023-01-19T14:04:27.244Z,9.95
2023-01-19T14:06:58.017Z,12.98
2023-01-19T14:09:26.198Z,16.30
2023-01-19T14:12:11.799Z,8.15
2023-01-19T14:14:42.386Z,15.23
2023-01-19T14:17:25.128Z,5.85
2023-01-19T14:19:54.765Z,9.55
2023-01-19T14:22:37.917Z,6.65
2023-01-19T14:25:28.407Z,4.50
2023-01-19T14:28:31.119Z,14.07
2023-01-19T14:31:02.290Z,11.48
2023-01-19T14:33:41.239Z,11.30
2023-01-19T14:36:26.365Z,10.93
2023-01-19T14:38:57.712Z,9.85
2023-01-19T14:41:28.426Z,13.93
2023-01-19T14:43:57.440Z,11.55
2023-01-19T14:46:27.684Z,13.27
2023-01-19T14:49:03.264Z,19.00
2023-01-19T14:51:33.121Z,12.02
2023-01-19T14:54:04.434Z,19.35
2023-01-19T14:56:35.866Z,9.93
2023-01-19T14:59:11.097Z,19.95
2023-01-19T15:01:41.092Z,15.65
2023-01-19T15:04:09.342Z,12.55
2023-01-19T15:06:43.327Z,10.85
2023-01-19T15:09:13.615Z,11.98
2023-01-19T15:11:42.671Z,8.07
2023-01-19T15:14:14.508Z,17.00
2023-01-19T15:16:44.913Z,19.35
2023-01-19T15:19:14.141Z,12.95
2023-01-19T15:21:43.127Z,13.75
2023-01-19T15:24:12.086Z,18.73
2023-01-19T15:26:42.131Z,14.50
2023-01-19T15:29:23.288Z,12.02
2023-01-19T15:31:53.963Z,13.05
2023-01-19T15:34:22.200Z,9.18
2023-01-19T15:36:50.305Z,11.10
2023-01-19T15:39:18.436Z,10.85
2023-01-19T15:41:46.727Z,9.73
2023-01-19T15:44:17.365Z,13.35
2023-01-19T15:46:45.468Z,12.02
2023-01-19T15:49:15.058Z,7.45
2023-01-19T15:51:43.146Z,9.10
2023-01-19T15:54:13.803Z,12.57
2023-01-19T15:56:44.414Z,11.63
2023-01-19T16:01:58.362Z,9.93
2023-01-19T16:04:28.150Z,13.05
2023-01-19T16:06:56.335Z,9.40
2023-01-19T16:09:24.697Z,7.30
2023-01-19T16:11:56.208Z,9.32
2023-01-19T16:14:39.710Z,13.43
2023-01-19T16:17:07.817Z,8.82
2023-01-19T16:19:37.334Z,11.05
2023-01-19T16:22:06.136Z,10.07
2023-01-19T16:24:36.451Z,11.88
2023-01-19T16:27:04.547Z,10.27
2023-01-19T16:29:32.951Z,14.48
2023-01-19T16:32:01.044Z,7.78
2023-01-19T16:34:29.147Z,10.50
2023-01-19T16:36:58.746Z,10.27
2023-01-19T16:39:26.878Z,10.15
2023-01-19T16:41:55.142Z,11.63
2023-01-19T16:44:23.365Z,10.18
2023-01-19T16:46:51.650Z,15.90
2023-01-19T16:49:22.348Z,9.00
2023-01-19T16:51:51.684Z,9.02
2023-01-19T16:54:23.169Z,10.50
2023-01-19T16:56:51.422Z,10.65
2023-01-19T16:59:21.207Z,11.27
2023-01-19T17:01:52.138Z,10.25
2023-01-19T17:04:23.250Z,14.85
2023-01-19T17:06:51.433Z,10.00
2023-01-19T17:09:21.134Z,11.70
2023-01-19T17:11:49.553Z,10.75
2023-01-19T17:14:21.995Z,14.05
2023-01-19T17:16:50.857Z,11.10
2023-01-19T17:19:22.129Z,9.90
2023-01-19T17:21:51.183Z,13.68
2023-01-19T17:24:21.119Z,8.88
2023-01-19T17:26:50.869Z,9.68
2023-01-19T17:29:19.160Z,11.77
2023-01-19T17:31:47.349Z,13.38
2023-01-19T17:34:15.568Z,8.13
2023-01-19T17:36:43.759Z,14.25
2023-01-19T17:39:15.863Z,9.93
2023-01-19T17:41:45.857Z,19.30
2023-01-19T17:44:14.025Z,9.10
2023-01-19T17:46:42.629Z,10.45
2023-01-19T17:49:12.065Z,11.32
2023-01-19T17:51:40.759Z,14.85
2023-01-19T17:54:10.900Z,9.85
2023-01-19T17:56:41.812Z,13.63
2023-01-19T17:59:11.335Z,11.48
2023-01-19T18:01:40.868Z,10.47
2023-01-19T18:04:09.861Z,12.48
2023-01-19T18:06:38.347Z,8.80
2023-01-19T18:09:07.580Z,13.63
2023-01-19T18:11:36.319Z,15.98
2023-01-19T18:14:06.107Z,12.07
2023-01-19T18:16:36.147Z,10.67
2023-01-19T18:19:04.424Z,17.23
2023-01-19T18:21:32.558Z,13.48
2023-01-19T18:24:03.298Z,11.57
2023-01-19T18:26:33.211Z,9.93
2023-01-19T18:29:01.406Z,13.20
2023-01-19T18:31:30.177Z,17.08
2023-01-19T18:33:59.852Z,7.65
2023-01-19T18:36:28.309Z,15.03
2023-01-19T18:38:56.509Z,11.73
2023-01-19T18:41:24.954Z,12.90
2023-01-19T18:43:54.597Z,9.77
2023-01-19T18:46:23.235Z,10.10
2023-01-19T18:48:52.059Z,15.00
2023-01-19T18:51:21.739Z,11.63
2023-01-19T18:53:50.040Z,12.23
2023-01-19T18:56:18.298Z,12.37
2023-01-19T18:58:46.909Z,10.40
2023-01-19T19:01:23.764Z,11.97
2023-01-19T19:03:52.306Z,12.67
2023-01-19T19:06:22.666Z,11.07
2023-01-19T19:08:52.109Z,14.70
2023-01-19T19:11:20.999Z,10.73
2023-01-19T19:13:53.270Z,13.23
2023-01-19T19:16:21.547Z,10.73
2023-01-19T19:18:50.558Z,14.43
2023-01-19T19:21:20.158Z,7.85
2023-01-19T19:23:53.081Z,8.50
2023-01-19T19:26:21.703Z,13.07
2023-01-19T19:28:49.926Z,6.43
2023-01-19T19:31:20.887Z,6.53
2023-01-19T19:33:51.195Z,5.70
2023-01-19T19:36:20.553Z,12.23
2023-01-19T19:38:49.645Z,8.00
2023-01-19T19:41:20.974Z,8.48
2023-01-19T19:43:49.522Z,6.63
2023-01-19T19:46:20.305Z,6.07
2023-01-19T19:48:49.218Z,9.18
2023-01-19T19:51:19.767Z,11.87
2023-01-19T19:53:51.376Z,7.43
2023-01-19T19:56:23.521Z,7.60
2023-01-19T19:58:54.964Z,10.37
2023-01-19T20:01:27.568Z,5.57
2023-01-19T20:03:57.047Z,9.90
2023-01-19T20:06:26.783Z,7.07
2023-01-19T20:08:57.166Z,9.45
2023-01-19T20:11:29.321Z,29.70
2023-01-19T20:13:57.597Z,5.07
2023-01-19T20:16:26.082Z,6.53
2023-01-19T20:18:55.328Z,5.70
2023-01-19T20:21:26.219Z,5.75
2023-01-19T20:23:57.580Z,18.60
2023-01-19T20:26:29.722Z,4.22
2023-01-19T20:29:00.371Z,4.95
2023-01-19T20:31:31.431Z,6.18
2023-01-19T20:34:02.641Z,3.95
2023-01-19T20:36:30.808Z,8.18
2023-01-19T20:39:00.131Z,5.30
2023-01-19T20:41:29.745Z,4.20
2023-01-19T20:43:58.117Z,5.38
2023-01-19T20:46:26.827Z,7.70
2023-01-19T20:48:55.153Z,8.18
2023-01-19T20:51:24.317Z,9.90
2023-01-19T20:53:52.571Z,5.38
2023-01-19T20:56:22.454Z,5.63
2023-01-19T20:58:53.171Z,5.05
2023-01-19T21:01:23.851Z,4.22
2023-01-19T21:03:54.578Z,10.82
2023-01-19T21:06:23.854Z,6.07
2023-01-19T21:08:53.354Z,4.55
2023-01-19T21:11:24.100Z,8.05
2023-01-19T21:13:56.227Z,8.57
2023-01-19T21:16:25.775Z,8.27
2023-01-19T21:18:55.077Z,4.85
2023-01-19T21:21:30.504Z,5.45
2023-01-19T21:24:01.113Z,4.35
2023-01-19T21:26:30.478Z,8.32
2023-01-19T21:29:01.375Z,4.63
2023-01-19T21:31:30.579Z,8.70
2023-01-19T21:33:59.254Z,5.85
2023-01-19T21:36:28.121Z,5.35
2023-01-19T21:39:01.009Z,7.60
2023-01-19T21:41:30.061Z,4.60
2023-01-19T21:44:01.552Z,6.60
2023-01-19T21:46:30.641Z,4.15
2023-01-19T21:48:59.820Z,6.07
2023-01-19T21:51:29.046Z,6.22
2023-01-19T21:53:59.725Z,4.90
2023-01-19T21:56:28.640Z,6.13
2023-01-19T21:58:57.363Z,6.18
2023-01-19T22:01:27.949Z,10.15
2023-01-19T22:03:58.754Z,7.60
2023-01-19T22:06:28.462Z,10.48
2023-01-19T22:08:58.017Z,6.72
2023-01-19T22:11:26.200Z,10.20
2023-01-19T22:13:54.986Z,9.38
2023-01-19T22:16:24.312Z,7.88
2023-01-19T22:18:57.661Z,8.97
2023-01-19T22:21:27.970Z,6.83
2023-01-19T22:23:59.117Z,9.15
2023-01-19T22:26:28.017Z,7.70
2023-01-19T22:28:57.320Z,6.03
2023-01-19T22:31:26.904Z,6.97
2023-01-19T22:33:56.688Z,10.70
2023-01-19T22:36:26.235Z,8.60
2023-01-19T22:38:56.663Z,9.63
2023-01-19T22:41:26.395Z,7.80
2023-01-19T22:43:55.914Z,8.40
2023-01-19T22:46:26.698Z,8.30
2023-01-19T22:48:56.452Z,7.77
2023-01-19T22:51:25.824Z,8.60
2023-01-19T22:53:54.067Z,10.97
2023-01-19T22:56:24.366Z,8.70
2023-01-19T22:58:53.411Z,10.67
2023-01-19T23:01:23.516Z,7.03
2023-01-19T23:03:52.399Z,5.03
2023-01-19T23:06:23.667Z,8.63
2023-01-19T23:08:52.598Z,9.33
2023-01-19T23:11:23.792Z,5.57
2023-01-19T23:13:52.241Z,4.80
2023-01-19T23:16:21.377Z,4.30
2023-01-19T23:18:53.677Z,5.03
2023-01-19T23:21:24.867Z,7.10
2023-01-19T23:23:55.412Z,6.37
2023-01-19T23:26:24.743Z,6.57
2023-01-19T23:28:56.262Z,4.70
2023-01-19T23:31:26.493Z,5.30
2023-01-19T23:33:56.495Z,5.90
2023-01-19T23:36:27.819Z,9.77
2023-01-19T23:38:57.459Z,6.17
2023-01-19T23:41:26.343Z,4.83
2023-01-19T23:43:54.672Z,6.40
2023-01-19T23:46:23.037Z,5.13
2023-01-19T23:48:51.514Z,9.43
2023-01-19T23:51:21.392Z,5.70
2023-01-19T23:53:51.202Z,5.15
2023-01-19T23:56:22.445Z,4.82
2023-01-19T23:58:55.115Z,3.13
